Time;durP1;ratioP1;P1;durP2;ratioP2;P2;SDS_P1;SDS_P2;PMS_P1;PMS_P2;Temp;Humidity;BMP_temperature;BMP_pressure;BME280_temperature;BME280_humidity;BME280_pressure;Samples;Min_cycle;Max_cycle;Signal;HPM_P1;HPM_P2
2023/11/17 00:01:33;;;;;;;;;;;6.90;99.10;;;;;;4936245;29;19962;-92
2023/11/17 00:03:59;;;;;;;;;;;6.90;99.20;;;;;;4932679;29;19918;-92
2023/11/17 00:06:25;;;;;;;;;;;6.90;99.30;;;;;;4933454;29;19910;-91
2023/11/17 00:08:51;;;;;;;;;;;6.80;99.30;;;;;;4933939;29;19917;-91
2023/11/17 00:11:17;;;;;;;;;;;6.80;99.40;;;;;;4933729;29;19986;-91
2023/11/17 00:13:42;;;;;;;;;;;6.80;99.60;;;;;;4939877;29;20001;-90
2023/11/17 00:16:08;;;;;;;;;;;6.80;99.70;;;;;;4933375;29;19962;-91
2023/11/17 00:18:34;;;;;;;;;;;6.80;99.60;;;;;;4951240;29;19921;-89
2023/11/17 00:21:00;;;;;;;;;;;6.80;99.50;;;;;;4942978;29;19914;-89
2023/11/17 00:23:28;;;;;;;;;;;6.80;99.50;;;;;;4934319;29;19941;-90
2023/11/17 00:25:57;;;;;;;;;;;6.80;99.50;;;;;;4933717;29;19974;-89
2023/11/17 00:28:23;;;;;;;;;;;6.80;99.50;;;;;;4937976;29;19911;-89
2023/11/17 00:30:49;;;;;;;;;;;6.80;99.50;;;;;;4939597;29;19911;-88
2023/11/17 00:33:15;;;;;;;;;;;6.80;99.50;;;;;;4934817;29;19954;-89
2023/11/17 00:35:40;;;;;;;;;;;6.80;99.40;;;;;;4934516;29;19965;-88
2023/11/17 00:38:06;;;;;;;;;;;6.70;99.40;;;;;;4933890;29;19915;-89
2023/11/17 00:40:33;;;;;;;;;;;6.80;99.40;;;;;;4930718;29;19921;-88
2023/11/17 00:43:00;;;;;;;;;;;6.70;99.30;;;;;;4938034;29;19910;-87
2023/11/17 00:45:26;;;;;;;;;;;6.70;99.20;;;;;;4929681;29;19912;-89
2023/11/17 00:47:52;;;;;;;;;;;6.70;99.20;;;;;;4930489;29;19911;-88
2023/11/17 00:50:17;;;;;;;;;;;6.70;99.20;;;;;;4934491;29;20009;-89
2023/11/17 00:52:43;;;;;;;;;;;6.70;99.20;;;;;;4928733;29;20358;-86
2023/11/17 00:55:11;;;;;;;;;;;6.80;99.20;;;;;;4935520;29;19942;-89
2023/11/17 00:57:36;;;;;;;;;;;6.80;99.30;;;;;;4931643;29;19915;-87
2023/11/17 01:00:04;;;;;;;;;;;6.80;99.30;;;;;;4929855;29;20377;-90
2023/11/17 01:02:30;;;;;;;;;;;6.80;99.30;;;;;;4937990;28;19926;-91
2023/11/17 01:04:56;;;;;;;;;;;6.80;99.30;;;;;;4934541;29;19911;-91
2023/11/17 01:07:21;;;;;;;;;;;6.80;99.30;;;;;;4937351;29;19958;-91
2023/11/17 01:09:47;;;;;;;;;;;6.80;99.30;;;;;;4941916;29;19910;-90
2023/11/17 01:12:13;;;;;;;;;;;6.80;99.30;;;;;;4937953;29;19937;-91
2023/11/17 01:14:39;;;;;;;;;;;6.80;99.30;;;;;;4943022;29;19938;-90
2023/11/17 01:17:04;;;;;;;;;;;6.80;99.40;;;;;;4933969;29;19998;-91
2023/11/17 01:19:30;;;;;;;;;;;6.80;99.40;;;;;;4944208;29;20457;-88
2023/11/17 01:21:55;;;;;;;;;;;6.70;99.40;;;;;;4933184;29;19911;-89
2023/11/17 01:24:21;;;;;;;;;;;6.70;99.30;;;;;;4930559;29;20016;-91
2023/11/17 01:26:47;;;;;;;;;;;6.70;99.20;;;;;;4939196;29;20054;-89
2023/11/17 01:29:12;;;;;;;;;;;6.60;99.30;;;;;;4927923;29;19918;-89
2023/11/17 01:31:38;;;;;;;;;;;6.60;99.40;;;;;;4933783;28;19910;-89
2023/11/17 01:34:04;;;;;;;;;;;6.60;99.60;;;;;;4934100;29;19918;-89
2023/11/17 01:36:30;;;;;;;;;;;6.60;99.60;;;;;;4936211;29;19910;-88
2023/11/17 01:38:57;;;;;;;;;;;6.60;99.40;;;;;;4940469;29;20042;-88
2023/11/17 01:41:23;;;;;;;;;;;6.60;99.50;;;;;;4940601;28;19917;-86
2023/11/17 01:43:50;;;;;;;;;;;6.60;99.40;;;;;;4953364;28;19910;-87
2023/11/17 01:46:16;;;;;;;;;;;6.60;99.30;;;;;;4935360;29;19911;-87
2023/11/17 01:48:43;;;;;;;;;;;6.60;99.30;;;;;;4938234;28;20368;-87
2023/11/17 01:51:08;;;;;;;;;;;6.60;99.20;;;;;;4949125;28;20001;-86
2023/11/17 01:53:34;;;;;;;;;;;6.60;99.10;;;;;;4947390;29;19953;-88
2023/11/17 01:55:59;;;;;;;;;;;6.60;99.10;;;;;;4937376;29;20366;-88
2023/11/17 01:58:27;;;;;;;;;;;6.70;99.20;;;;;;4937279;29;19986;-88
2023/11/17 02:00:53;;;;;;;;;;;6.80;99.10;;;;;;4940159;29;19915;-88
2023/11/17 02:03:19;;;;;;;;;;;6.70;99.10;;;;;;4932544;29;19911;-88
2023/11/17 02:05:46;;;;;;;;;;;6.70;99.10;;;;;;4942810;29;19902;-86
2023/11/17 02:08:15;;;;;;;;;;;6.70;99.10;;;;;;4952203;29;19917;-87
2023/11/17 02:11:09;;;;;;;;;;;6.70;99.00;;;;;;4940811;29;19918;-88
2023/11/17 02:13:39;;;;;;;;;;;6.70;99.30;;;;;;4943154;29;19915;-88
2023/11/17 02:16:10;;;;;;;;;;;6.80;99.00;;;;;;4946519;28;19910;-90
2023/11/17 02:18:38;;;;;;;;;;;6.80;98.90;;;;;;4935018;28;20569;-87
2023/11/17 02:21:05;;;;;;;;;;;6.80;98.80;;;;;;4943542;29;19990;-89
2023/11/17 02:23:31;;;;;;;;;;;6.80;98.80;;;;;;4930994;29;20381;-89
2023/11/17 02:26:07;;;;;;;;;;;6.80;98.70;;;;;;4936552;29;19942;-90
2023/11/17 02:28:41;;;;;;;;;;;6.80;98.70;;;;;;4938387;29;19953;-88
2023/11/17 02:31:18;;;;;;;;;;;6.80;98.70;;;;;;4932858;29;19914;-88
2023/11/17 02:33:48;;;;;;;;;;;6.70;98.80;;;;;;4930417;29;19957;-88
2023/11/17 02:36:17;;;;;;;;;;;6.80;98.80;;;;;;4938641;28;19910;-90
2023/11/17 02:39:05;;;;;;;;;;;6.80;98.70;;;;;;4935306;29;19973;-87
2023/11/17 02:41:37;;;;;;;;;;;6.80;98.70;;;;;;4926634;29;19923;-89
2023/11/17 02:44:03;;;;;;;;;;;6.80;98.70;;;;;;4933090;29;19917;-89
2023/11/17 02:46:32;;;;;;;;;;;6.80;98.70;;;;;;4933829;29;20514;-92
2023/11/17 02:49:10;;;;;;;;;;;6.80;98.70;;;;;;4934493;29;19957;-89
2023/11/17 02:51:43;;;;;;;;;;;6.80;98.70;;;;;;4949574;28;19957;-90
2023/11/17 02:54:09;;;;;;;;;;;6.80;98.70;;;;;;4936670;29;19906;-90
2023/11/17 02:56:38;;;;;;;;;;;6.80;98.60;;;;;;4934313;29;19911;-91
2023/11/17 02:59:13;;;;;;;;;;;6.80;98.60;;;;;;4940638;29;20428;-91
2023/11/17 03:01:39;;;;;;;;;;;6.80;98.50;;;;;;4956839;28;19911;-91
2023/11/17 03:04:13;;;;;;;;;;;6.80;98.40;;;;;;4934180;29;19918;-88
2023/11/17 03:06:40;;;;;;;;;;;6.80;98.40;;;;;;4932803;29;20353;-89
2023/11/17 03:09:06;;;;;;;;;;;6.80;98.30;;;;;;4934187;29;20316;-88
2023/11/17 03:11:31;;;;;;;;;;;6.80;98.30;;;;;;4936281;29;20254;-88
2023/11/17 03:13:57;;;;;;;;;;;6.80;98.40;;;;;;4948529;28;19911;-89
2023/11/17 03:16:23;;;;;;;;;;;6.70;98.40;;;;;;4938693;28;19919;-87
2023/11/17 03:18:52;;;;;;;;;;;6.70;98.40;;;;;;4935382;29;19921;-89
2023/11/17 03:21:23;;;;;;;;;;;6.70;98.40;;;;;;4938168;29;20412;-87
2023/11/17 03:23:50;;;;;;;;;;;6.70;98.50;;;;;;4934383;29;19918;-89
2023/11/17 03:26:17;;;;;;;;;;;6.60;98.40;;;;;;4937091;29;19958;-89
2023/11/17 03:28:42;;;;;;;;;;;6.60;98.50;;;;;;4939705;29;20286;-89
2023/11/17 03:31:13;;;;;;;;;;;6.60;98.50;;;;;;4930248;29;19987;-88
2023/11/17 03:33:43;;;;;;;;;;;6.60;98.50;;;;;;4929280;29;19917;-87
2023/11/17 03:36:10;;;;;;;;;;;6.60;98.60;;;;;;4933541;29;19911;-89
2023/11/17 03:38:36;;;;;;;;;;;6.50;98.60;;;;;;4933602;29;19917;-88
2023/11/17 03:41:01;;;;;;;;;;;6.50;98.70;;;;;;4931944;29;20009;-89
2023/11/17 03:43:27;;;;;;;;;;;6.50;98.60;;;;;;4933798;29;19918;-88
2023/11/17 03:45:52;;;;;;;;;;;6.50;98.40;;;;;;4935750;28;20353;-89
2023/11/17 03:48:18;;;;;;;;;;;6.40;98.50;;;;;;4948718;29;19917;-87
2023/11/17 03:50:43;;;;;;;;;;;6.40;98.70;;;;;;4935968;29;20309;-90
2023/11/17 03:53:09;;;;;;;;;;;6.40;98.70;;;;;;4934337;29;20588;-91
2023/11/17 03:55:34;;;;;;;;;;;6.40;98.60;;;;;;4939956;28;19910;-90
2023/11/17 03:58:00;;;;;;;;;;;6.40;98.70;;;;;;4932322;29;19910;-91
2023/11/17 04:00:27;;;;;;;;;;;6.30;98.70;;;;;;4928775;29;19910;-90
2023/11/17 04:02:52;;;;;;;;;;;6.30;98.80;;;;;;4939821;29;20009;-88
2023/11/17 04:05:18;;;;;;;;;;;6.30;98.90;;;;;;4929321;29;19958;-90
2023/11/17 04:07:44;;;;;;;;;;;6.30;99.00;;;;;;4940685;28;19911;-90
2023/11/17 04:10:10;;;;;;;;;;;6.30;99.00;;;;;;4931647;29;20450;-91
2023/11/17 04:12:36;;;;;;;;;;;6.30;98.80;;;;;;4934685;29;19921;-91
2023/11/17 04:15:02;;;;;;;;;;;6.30;98.80;;;;;;4936433;29;19911;-90
2023/11/17 04:17:30;;;;;;;;;;;6.30;98.80;;;;;;4933176;29;19956;-90
2023/11/17 04:19:56;;;;;;;;;;;6.20;98.80;;;;;;4933597;29;19917;-89
2023/11/17 04:22:21;;;;;;;;;;;6.30;99.00;;;;;;4932682;29;20392;-88
2023/11/17 04:24:47;;;;;;;;;;;6.30;98.90;;;;;;4939019;29;19919;-88
2023/11/17 04:27:12;;;;;;;;;;;6.20;98.60;;;;;;4934940;29;19978;-87
2023/11/17 04:29:38;;;;;;;;;;;6.20;98.70;;;;;;4934939;29;19910;-88
2023/11/17 04:32:03;;;;;;;;;;;6.20;98.80;;;;;;4933609;29;19949;-89
2023/11/17 04:34:29;;;;;;;;;;;6.20;99.00;;;;;;4938928;29;19911;-87
2023/11/17 04:36:56;;;;;;;;;;;6.20;99.10;;;;;;4935653;29;19907;-87
2023/11/17 04:39:24;;;;;;;;;;;6.20;99.00;;;;;;4948879;28;20407;-90
2023/11/17 04:41:50;;;;;;;;;;;6.20;98.70;;;;;;4938169;29;19906;-90
2023/11/17 04:44:17;;;;;;;;;;;6.10;98.60;;;;;;4934153;28;19911;-90
2023/11/17 04:46:42;;;;;;;;;;;6.10;98.60;;;;;;4939133;28;19911;-90
2023/11/17 04:49:08;;;;;;;;;;;6.10;98.70;;;;;;4939828;29;19938;-90
2023/11/17 04:51:35;;;;;;;;;;;6.20;98.80;;;;;;4932893;29;19980;-89
2023/11/17 04:54:00;;;;;;;;;;;6.20;98.70;;;;;;4933309;29;19958;-89
2023/11/17 04:56:28;;;;;;;;;;;6.20;98.40;;;;;;4927036;29;19914;-89
2023/11/17 04:58:54;;;;;;;;;;;6.10;98.50;;;;;;4926256;29;19914;-87
2023/11/17 05:01:20;;;;;;;;;;;6.10;98.60;;;;;;4928573;29;20400;-89
2023/11/17 05:03:45;;;;;;;;;;;6.10;98.60;;;;;;4936717;28;19914;-86
2023/11/17 05:06:11;;;;;;;;;;;6.10;98.70;;;;;;4950347;29;19926;-88
2023/11/17 05:08:37;;;;;;;;;;;6.10;98.80;;;;;;4932816;29;19919;-88
2023/11/17 05:11:06;;;;;;;;;;;6.20;98.80;;;;;;4928130;29;19918;-87
2023/11/17 05:13:32;;;;;;;;;;;6.20;98.60;;;;;;4952151;28;20001;-84
2023/11/17 05:15:57;;;;;;;;;;;6.20;98.50;;;;;;4930040;29;19974;-88
2023/11/17 05:18:23;;;;;;;;;;;6.20;98.50;;;;;;4948023;28;20369;-90
2023/11/17 05:20:48;;;;;;;;;;;6.20;98.50;;;;;;4926536;29;20354;-90
2023/11/17 05:23:16;;;;;;;;;;;6.20;98.90;;;;;;4932406;29;20006;-86
2023/11/17 05:25:42;;;;;;;;;;;6.20;98.70;;;;;;4930987;29;19965;-90
2023/11/17 05:28:10;;;;;;;;;;;6.20;98.60;;;;;;4929242;29;19907;-91
2023/11/17 05:30:39;;;;;;;;;;;6.20;98.60;;;;;;4940175;29;19910;-91
2023/11/17 05:33:04;;;;;;;;;;;6.20;98.70;;;;;;4936409;29;20413;-87
2023/11/17 05:35:31;;;;;;;;;;;6.30;98.80;;;;;;4954713;28;19942;-86
2023/11/17 05:37:57;;;;;;;;;;;6.30;98.70;;;;;;4948233;28;19911;-85
2023/11/17 05:40:22;;;;;;;;;;;6.30;98.60;;;;;;4960583;28;19954;-83
2023/11/17 05:42:48;;;;;;;;;;;6.30;98.60;;;;;;4959256;28;19922;-86
2023/11/17 05:45:14;;;;;;;;;;;6.30;98.70;;;;;;4955715;28;19933;-88
2023/11/17 05:47:40;;;;;;;;;;;6.30;98.80;;;;;;4958264;28;19902;-88
2023/11/17 05:50:08;;;;;;;;;;;6.40;98.80;;;;;;4959838;28;19925;-86
2023/11/17 05:52:34;;;;;;;;;;;6.30;98.50;;;;;;4962219;28;19903;-87
2023/11/17 05:55:00;;;;;;;;;;;6.40;98.70;;;;;;4951850;29;20004;-87
2023/11/17 05:57:26;;;;;;;;;;;6.40;98.60;;;;;;4944080;29;19911;-88
2023/11/17 05:59:53;;;;;;;;;;;6.40;98.40;;;;;;4938658;29;19927;-88
2023/11/17 06:02:18;;;;;;;;;;;6.40;98.40;;;;;;4945881;29;20281;-86
2023/11/17 06:04:44;;;;;;;;;;;6.30;98.50;;;;;;4938903;29;19910;-86
2023/11/17 06:07:10;;;;;;;;;;;6.40;98.60;;;;;;4941896;29;19911;-88
2023/11/17 06:09:36;;;;;;;;;;;6.40;98.60;;;;;;4943509;29;19919;-87
2023/11/17 06:12:03;;;;;;;;;;;6.40;98.50;;;;;;4955217;28;19915;-88
2023/11/17 06:14:33;;;;;;;;;;;6.30;98.60;;;;;;4938841;29;19966;-87
2023/11/17 06:17:00;;;;;;;;;;;6.40;98.70;;;;;;4940066;29;19918;-88
2023/11/17 06:19:28;;;;;;;;;;;6.40;98.50;;;;;;4953046;29;20361;-89
2023/11/17 06:21:54;;;;;;;;;;;6.40;98.50;;;;;;4938241;29;19914;-88
2023/11/17 06:24:20;;;;;;;;;;;6.30;98.70;;;;;;4933699;29;19918;-87
2023/11/17 06:26:45;;;;;;;;;;;6.40;98.80;;;;;;4937058;29;20349;-89
2023/11/17 06:29:12;;;;;;;;;;;6.40;98.60;;;;;;4935257;29;20369;-88
2023/11/17 06:31:37;;;;;;;;;;;6.50;98.50;;;;;;4937514;29;19953;-88
2023/11/17 06:34:04;;;;;;;;;;;6.50;98.40;;;;;;4938611;29;20330;-84
2023/11/17 06:36:29;;;;;;;;;;;6.50;98.40;;;;;;4943122;28;19910;-87
2023/11/17 06:38:55;;;;;;;;;;;6.50;98.30;;;;;;4931557;29;19915;-90
2023/11/17 06:41:20;;;;;;;;;;;6.60;98.20;;;;;;4939097;29;19911;-92
2023/11/17 06:43:46;;;;;;;;;;;6.80;98.20;;;;;;4937548;29;20086;-87
2023/11/17 06:46:11;;;;;;;;;;;6.70;98.10;;;;;;4936150;29;19917;-89
2023/11/17 06:48:40;;;;;;;;;;;6.70;98.00;;;;;;4931658;29;20385;-90
2023/11/17 06:51:05;;;;;;;;;;;6.70;97.90;;;;;;4931083;29;20001;-90
2023/11/17 06:53:32;;;;;;;;;;;6.70;97.80;;;;;;4938445;29;19958;-91
2023/11/17 06:55:59;;;;;;;;;;;6.70;97.70;;;;;;4936800;29;19913;-90
2023/11/17 06:58:25;;;;;;;;;;;6.70;97.60;;;;;;4935977;29;19998;-90
2023/11/17 07:00:51;;;;;;;;;;;6.70;97.70;;;;;;4946940;28;19977;-87
2023/11/17 07:03:16;;;;;;;;;;;6.70;97.80;;;;;;4951567;29;19921;-88
2023/11/17 07:05:42;;;;;;;;;;;6.70;97.80;;;;;;4957144;28;19930;-87
2023/11/17 07:08:42;;;;;;;;;;;6.60;97.80;;;;;;4953203;28;20461;-88
2023/11/17 07:11:10;;;;;;;;;;;6.60;97.90;;;;;;4956966;28;19903;-84
2023/11/17 07:13:36;;;;;;;;;;;6.60;98.10;;;;;;4963079;28;20002;-86
2023/11/17 07:16:06;;;;;;;;;;;6.60;98.10;;;;;;4958708;28;19914;-86
2023/11/17 07:18:32;;;;;;;;;;;6.70;98.00;;;;;;4957437;29;19914;-84
2023/11/17 07:20:57;;;;;;;;;;;6.60;98.00;;;;;;4953202;29;19899;-92
2023/11/17 07:23:23;;;;;;;;;;;6.60;98.00;;;;;;4963527;28;20002;-91
2023/11/17 07:25:48;;;;;;;;;;;6.60;98.20;;;;;;4932322;29;19918;-92
2023/11/17 07:28:15;;;;;;;;;;;6.60;98.40;;;;;;4940896;29;19938;-90
2023/11/17 07:30:42;;;;;;;;;;;6.60;98.30;;;;;;4944635;29;19966;-91
2023/11/17 07:33:09;;;;;;;;;;;6.70;98.30;;;;;;4932849;29;19925;-88
2023/11/17 07:35:35;;;;;;;;;;;6.70;98.30;;;;;;4935502;28;19966;-87
2023/11/17 07:38:02;;;;;;;;;;;6.70;98.20;;;;;;4943079;28;19906;-88
2023/11/17 07:40:28;;;;;;;;;;;6.70;98.00;;;;;;4956268;28;19906;-93
2023/11/17 07:42:53;;;;;;;;;;;6.80;98.00;;;;;;4943261;29;19913;-91
2023/11/17 07:45:18;;;;;;;;;;;6.90;97.90;;;;;;4948584;28;19918;-87
2023/11/17 07:47:44;;;;;;;;;;;6.70;97.70;;;;;;4936071;29;20358;-92
2023/11/17 07:50:19;;;;;;;;;;;6.60;97.80;;;;;;4935528;29;20292;-91
2023/11/17 07:52:45;;;;;;;;;;;6.70;97.90;;;;;;4955304;28;19970;-90
2023/11/17 07:55:13;;;;;;;;;;;6.70;97.90;;;;;;4933856;29;19975;-89
2023/11/17 07:57:44;;;;;;;;;;;6.70;97.90;;;;;;4950383;28;19922;-90
2023/11/17 08:00:27;;;;;;;;;;;6.80;97.90;;;;;;4937386;29;20405;-90
2023/11/17 08:02:55;;;;;;;;;;;6.80;97.80;;;;;;4931246;29;20001;-90
2023/11/17 08:05:20;;;;;;;;;;;6.80;97.70;;;;;;4951205;28;20001;-90
2023/11/17 08:07:46;;;;;;;;;;;6.90;97.60;;;;;;4930045;29;19955;-91
2023/11/17 08:10:13;;;;;;;;;;;7.00;97.70;;;;;;4934076;29;20392;-91
2023/11/17 08:12:39;;;;;;;;;;;7.00;97.60;;;;;;4937005;29;19914;-92
2023/11/17 08:15:06;;;;;;;;;;;7.10;97.50;;;;;;4938350;29;19918;-91
2023/11/17 08:17:31;;;;;;;;;;;7.10;97.50;;;;;;4951763;28;19949;-92
2023/11/17 08:20:00;;;;;;;;;;;7.10;97.40;;;;;;4932473;29;20358;-89
2023/11/17 08:22:29;;;;;;;;;;;7.10;97.40;;;;;;4939605;29;19915;-89
2023/11/17 08:24:56;;;;;;;;;;;7.20;97.30;;;;;;4937454;28;19934;-89
2023/11/17 08:27:21;;;;;;;;;;;7.20;97.30;;;;;;4937138;29;19913;-90
2023/11/17 08:29:47;;;;;;;;;;;7.20;97.30;;;;;;4942692;29;20001;-90
2023/11/17 08:32:13;;;;;;;;;;;7.20;97.30;;;;;;4936133;29;19915;-90
2023/11/17 08:34:38;;;;;;;;;;;7.30;97.30;;;;;;4935899;29;19915;-87
2023/11/17 08:37:05;;;;;;;;;;;7.30;97.20;;;;;;4949178;29;19911;-88
2023/11/17 08:39:30;;;;;;;;;;;7.30;97.20;;;;;;4942695;29;19919;-90
2023/11/17 08:41:56;;;;;;;;;;;7.30;97.20;;;;;;4932244;29;19911;-86
2023/11/17 08:44:22;;;;;;;;;;;7.30;97.20;;;;;;4932443;29;19910;-86
2023/11/17 08:46:49;;;;;;;;;;;7.30;97.30;;;;;;4948771;28;19910;-85
2023/11/17 08:49:16;;;;;;;;;;;7.30;97.30;;;;;;4944537;29;19911;-89
2023/11/17 08:51:42;;;;;;;;;;;7.30;97.30;;;;;;4933137;29;19918;-88
2023/11/17 08:54:07;;;;;;;;;;;7.30;97.30;;;;;;4934827;29;19915;-89
2023/11/17 08:56:34;;;;;;;;;;;7.30;97.30;;;;;;4934422;28;20266;-88
2023/11/17 08:59:01;;;;;;;;;;;7.30;97.40;;;;;;4933535;29;19915;-88
2023/11/17 09:01:27;;;;;;;;;;;7.30;97.40;;;;;;4940806;29;19919;-88
2023/11/17 09:03:52;;;;;;;;;;;7.30;97.40;;;;;;4940134;29;20398;-88
2023/11/17 09:06:18;;;;;;;;;;;7.30;97.50;;;;;;4942391;29;20393;-87
2023/11/17 09:08:43;;;;;;;;;;;7.30;97.50;;;;;;4933409;29;19910;-88
2023/11/17 09:11:09;;;;;;;;;;;7.30;97.60;;;;;;4936922;29;19949;-89
2023/11/17 09:13:40;;;;;;;;;;;7.30;97.60;;;;;;4934240;29;20292;-86
2023/11/17 09:16:09;;;;;;;;;;;7.30;97.70;;;;;;4933018;29;19926;-88
2023/11/17 09:18:35;;;;;;;;;;;7.40;97.60;;;;;;4935235;29;19911;-86
2023/11/17 09:21:05;;;;;;;;;;;7.50;97.60;;;;;;4942870;28;19921;-88
2023/11/17 09:23:34;;;;;;;;;;;7.50;97.60;;;;;;4934521;28;19914;-88
2023/11/17 09:26:01;;;;;;;;;;;7.50;97.60;;;;;;4942421;29;19926;-87
2023/11/17 09:28:26;;;;;;;;;;;7.60;97.50;;;;;;4937928;29;20264;-88
2023/11/17 09:30:53;;;;;;;;;;;7.60;97.60;;;;;;4937230;29;19915;-87
2023/11/17 09:33:18;;;;;;;;;;;7.70;97.90;;;;;;4934871;29;19911;-88
2023/11/17 09:35:48;;;;;;;;;;;7.70;97.70;;;;;;4934268;29;19925;-85
2023/11/17 09:38:14;;;;;;;;;;;7.80;97.70;;;;;;4936253;29;19917;-86
2023/11/17 09:40:40;;;;;;;;;;;7.80;97.70;;;;;;4938449;29;19915;-87
2023/11/17 09:43:11;;;;;;;;;;;8.00;97.70;;;;;;4935699;29;19910;-87
2023/11/17 09:45:36;;;;;;;;;;;8.10;97.70;;;;;;4938447;29;19925;-87
2023/11/17 09:48:03;;;;;;;;;;;8.10;97.60;;;;;;4943358;29;20005;-88
2023/11/17 09:50:29;;;;;;;;;;;8.20;97.40;;;;;;4947484;29;20717;-88
2023/11/17 09:52:55;;;;;;;;;;;8.20;97.40;;;;;;4938208;29;19965;-89
2023/11/17 09:55:21;;;;;;;;;;;8.30;97.40;;;;;;4942281;29;20304;-88
2023/11/17 09:57:49;;;;;;;;;;;8.30;97.50;;;;;;4937003;28;19914;-88
2023/11/17 10:00:17;;;;;;;;;;;8.30;97.40;;;;;;4937084;29;19962;-89
2023/11/17 10:02:48;;;;;;;;;;;8.40;97.30;;;;;;4934562;29;19919;-87
2023/11/17 10:05:13;;;;;;;;;;;8.40;97.20;;;;;;4941890;29;19910;-88
2023/11/17 10:07:39;;;;;;;;;;;8.40;97.20;;;;;;4940878;28;19917;-89
2023/11/17 10:10:06;;;;;;;;;;;8.50;97.10;;;;;;4940279;29;19911;-87
2023/11/17 10:12:34;;;;;;;;;;;8.60;97.00;;;;;;4938039;29;20417;-88
2023/11/17 10:15:06;;;;;;;;;;;8.60;96.90;;;;;;4939185;29;19990;-87
2023/11/17 10:17:33;;;;;;;;;;;8.70;96.90;;;;;;4936553;29;20427;-89
2023/11/17 10:19:59;;;;;;;;;;;8.70;96.80;;;;;;4938752;29;19921;-90
2023/11/17 10:22:28;;;;;;;;;;;8.70;96.70;;;;;;4934333;29;19919;-88
2023/11/17 10:24:53;;;;;;;;;;;8.80;96.60;;;;;;4942189;28;19910;-88
2023/11/17 10:27:20;;;;;;;;;;;8.90;96.60;;;;;;4941398;29;19961;-88
2023/11/17 10:29:48;;;;;;;;;;;8.90;96.60;;;;;;4935237;29;20432;-88
2023/11/17 10:32:18;;;;;;;;;;;9.00;96.50;;;;;;4934565;29;19923;-87
2023/11/17 10:35:04;;;;;;;;;;;9.00;96.40;;;;;;4938809;28;19911;-89
2023/11/17 10:37:33;;;;;;;;;;;9.00;96.50;;;;;;4951258;28;19907;-90
2023/11/17 10:39:59;;;;;;;;;;;9.10;96.40;;;;;;4943036;29;19915;-88
2023/11/17 10:42:24;;;;;;;;;;;9.20;96.50;;;;;;4941425;28;19911;-89
2023/11/17 10:44:50;;;;;;;;;;;9.30;96.40;;;;;;4937395;29;19989;-88
2023/11/17 10:47:16;;;;;;;;;;;9.40;96.40;;;;;;4937499;28;19910;-89
2023/11/17 10:49:41;;;;;;;;;;;9.50;96.20;;;;;;4936448;29;19969;-88
2023/11/17 10:52:09;;;;;;;;;;;9.60;96.10;;;;;;4934966;29;20270;-88
2023/11/17 10:54:44;;;;;;;;;;;9.70;96.00;;;;;;4940599;29;19911;-88
2023/11/17 10:57:10;;;;;;;;;;;9.70;95.80;;;;;;4933762;29;20378;-89
2023/11/17 10:59:36;;;;;;;;;;;9.90;95.80;;;;;;4934683;29;19921;-88
2023/11/17 11:02:03;;;;;;;;;;;10.00;95.60;;;;;;4936553;29;19930;-90
2023/11/17 11:04:29;;;;;;;;;;;10.10;95.40;;;;;;4940518;29;19918;-90
2023/11/17 11:06:55;;;;;;;;;;;10.20;95.30;;;;;;4942306;28;19910;-86
2023/11/17 11:09:29;;;;;;;;;;;10.30;95.30;;;;;;4939067;29;19940;-89
2023/11/17 11:11:54;;;;;;;;;;;10.30;95.10;;;;;;4933150;29;20054;-87
2023/11/17 11:14:21;;;;;;;;;;;10.30;95.00;;;;;;4935696;29;20388;-90
2023/11/17 11:16:47;;;;;;;;;;;10.30;94.90;;;;;;4933813;29;20597;-89
2023/11/17 11:19:14;;;;;;;;;;;10.40;94.90;;;;;;4935156;29;19937;-89
2023/11/17 11:21:39;;;;;;;;;;;10.40;94.90;;;;;;4933495;29;19921;-89
2023/11/17 11:24:08;;;;;;;;;;;10.50;94.80;;;;;;4933429;29;19915;-89
2023/11/17 11:26:36;;;;;;;;;;;10.50;94.70;;;;;;4932714;29;19917;-89
2023/11/17 11:29:04;;;;;;;;;;;10.50;94.60;;;;;;4951315;28;20357;-88
2023/11/17 11:31:30;;;;;;;;;;;10.50;94.50;;;;;;4933273;29;19945;-88
2023/11/17 11:33:57;;;;;;;;;;;10.60;94.50;;;;;;4933349;29;20009;-89
2023/11/17 11:36:23;;;;;;;;;;;10.70;94.40;;;;;;4937653;29;19911;-88
2023/11/17 11:38:49;;;;;;;;;;;10.80;94.30;;;;;;4936851;28;19910;-88
2023/11/17 11:41:22;;;;;;;;;;;10.90;94.10;;;;;;4936296;29;19934;-88
2023/11/17 11:43:54;;;;;;;;;;;11.00;94.00;;;;;;4937916;28;19969;-87
2023/11/17 11:46:21;;;;;;;;;;;11.20;93.80;;;;;;4930580;29;20346;-87
2023/11/17 11:48:49;;;;;;;;;;;11.30;93.50;;;;;;4933481;29;19915;-89
2023/11/17 11:51:17;;;;;;;;;;;11.40;93.30;;;;;;4934190;29;20442;-87
2023/11/17 11:53:59;;;;;;;;;;;11.80;92.80;;;;;;4946664;29;19917;-87
2023/11/17 11:56:42;;;;;;;;;;;12.10;92.00;;;;;;4933922;28;20008;-88
2023/11/17 12:14:29;;;;;;;;;;;12.60;91.60;;;;;;4929514;29;19921;-87
2023/11/17 12:16:55;;;;;;;;;;;13.80;90.30;;;;;;4937733;29;19911;-89
2023/11/17 12:19:25;;;;;;;;;;;14.80;87.40;;;;;;4940178;29;19918;-89
2023/11/17 12:21:51;;;;;;;;;;;15.60;84.40;;;;;;4928215;29;19907;-88
2023/11/17 12:24:23;;;;;;;;;;;15.90;82.30;;;;;;4932754;29;19918;-89
2023/11/17 12:26:53;;;;;;;;;;;15.60;82.40;;;;;;4935054;29;19911;-89
2023/11/17 12:29:20;;;;;;;;;;;15.20;83.00;;;;;;4944079;28;19912;-89
2023/11/17 12:31:49;;;;;;;;;;;14.80;84.30;;;;;;4936165;29;19918;-90
2023/11/17 12:34:15;;;;;;;;;;;14.30;85.30;;;;;;4938522;29;20384;-89
2023/11/17 12:36:40;;;;;;;;;;;14.10;86.50;;;;;;4933033;29;19911;-89
2023/11/17 12:39:14;;;;;;;;;;;14.10;85.50;;;;;;4932062;29;19922;-90
2023/11/17 12:41:39;;;;;;;;;;;14.50;84.70;;;;;;4935494;29;19946;-87
2023/11/17 12:44:05;;;;;;;;;;;15.50;82.90;;;;;;4940534;29;19914;-87
2023/11/17 12:46:31;;;;;;;;;;;16.30;80.50;;;;;;4933272;29;19918;-89
2023/11/17 12:48:57;;;;;;;;;;;16.90;78.80;;;;;;4932238;29;19921;-89
2023/11/17 12:51:23;;;;;;;;;;;17.30;77.60;;;;;;4936297;29;19922;-90
2023/11/17 12:53:49;;;;;;;;;;;17.60;76.80;;;;;;4934754;29;19910;-88
2023/11/17 12:56:15;;;;;;;;;;;17.60;76.20;;;;;;4936271;29;19910;-89
2023/11/17 12:58:41;;;;;;;;;;;17.60;76.00;;;;;;4932973;29;20498;-88
2023/11/17 13:01:14;;;;;;;;;;;17.70;75.80;;;;;;4936173;29;19973;-91
2023/11/17 13:03:43;;;;;;;;;;;17.60;75.40;;;;;;4949811;29;19911;-91
2023/11/17 13:06:09;;;;;;;;;;;17.50;74.80;;;;;;4935841;29;19963;-90
2023/11/17 13:08:36;;;;;;;;;;;17.20;74.80;;;;;;4946022;29;19911;-88
2023/11/17 13:11:02;;;;;;;;;;;17.10;74.80;;;;;;4941535;28;19907;-85
2023/11/17 13:13:28;;;;;;;;;;;17.00;75.50;;;;;;4933911;29;19911;-88
2023/11/17 13:15:53;;;;;;;;;;;16.90;75.60;;;;;;4935614;29;20339;-88
2023/11/17 13:18:19;;;;;;;;;;;16.50;76.20;;;;;;4935152;29;19907;-88
2023/11/17 13:20:45;;;;;;;;;;;16.40;76.90;;;;;;4937389;29;20010;-88
2023/11/17 13:23:11;;;;;;;;;;;16.00;76.80;;;;;;4934695;29;19915;-87
2023/11/17 13:25:55;;;;;;;;;;;15.80;77.50;;;;;;4946360;28;19911;-88
2023/11/17 13:28:21;;;;;;;;;;;15.50;78.30;;;;;;4939695;29;19911;-88
2023/11/17 13:30:47;;;;;;;;;;;14.90;79.10;;;;;;4951488;29;20589;-88
2023/11/17 13:33:12;;;;;;;;;;;14.40;79.80;;;;;;4949833;28;19906;-88
2023/11/17 13:35:38;;;;;;;;;;;14.10;80.80;;;;;;4943807;29;19918;-88
2023/11/17 13:38:04;;;;;;;;;;;13.80;81.00;;;;;;4940536;29;19906;-89
2023/11/17 13:40:33;;;;;;;;;;;13.50;81.50;;;;;;4947298;29;20013;-88
2023/11/17 13:42:59;;;;;;;;;;;13.30;81.90;;;;;;4949736;28;19911;-88
2023/11/17 13:45:25;;;;;;;;;;;13.20;82.60;;;;;;4946436;29;19981;-87
2023/11/17 13:48:00;;;;;;;;;;;13.10;83.00;;;;;;4958545;28;19966;-87
2023/11/17 13:50:27;;;;;;;;;;;13.00;83.20;;;;;;4938459;29;19929;-87
2023/11/17 13:52:53;;;;;;;;;;;12.80;83.10;;;;;;4947342;29;19907;-88
2023/11/17 13:55:19;;;;;;;;;;;12.70;83.50;;;;;;4945953;28;19910;-88
2023/11/17 13:57:45;;;;;;;;;;;12.60;83.70;;;;;;4937463;29;20012;-88
2023/11/17 14:00:11;;;;;;;;;;;12.50;83.80;;;;;;4941058;29;20393;-88
2023/11/17 14:02:37;;;;;;;;;;;12.40;84.20;;;;;;4955166;28;19961;-87
2023/11/17 14:05:06;;;;;;;;;;;12.30;84.20;;;;;;4947978;28;19914;-85
2023/11/17 14:07:31;;;;;;;;;;;12.20;84.60;;;;;;4940264;28;20392;-87
2023/11/17 14:09:57;;;;;;;;;;;12.10;84.80;;;;;;4934714;29;19911;-88
2023/11/17 14:12:22;;;;;;;;;;;12.00;85.00;;;;;;4935118;29;19997;-86
2023/11/17 14:14:49;;;;;;;;;;;11.90;85.40;;;;;;4946164;29;21780;-86
2023/11/17 14:17:15;;;;;;;;;;;11.90;85.60;;;;;;4943465;28;19914;-88
2023/11/17 14:19:42;;;;;;;;;;;11.80;85.60;;;;;;4936855;29;19970;-87
2023/11/17 14:22:09;;;;;;;;;;;11.70;85.80;;;;;;4941028;29;19998;-87
2023/11/17 14:24:35;;;;;;;;;;;11.70;86.00;;;;;;4938494;29;19910;-89
2023/11/17 14:27:01;;;;;;;;;;;11.60;86.10;;;;;;4940555;29;20001;-89
2023/11/17 14:29:31;;;;;;;;;;;11.60;86.30;;;;;;4935828;29;19991;-87
2023/11/17 14:31:56;;;;;;;;;;;11.50;86.40;;;;;;4928205;29;20366;-87
2023/11/17 14:34:22;;;;;;;;;;;11.40;86.30;;;;;;4943985;29;19961;-88
2023/11/17 14:36:51;;;;;;;;;;;11.40;86.40;;;;;;4939394;29;19914;-87
2023/11/17 14:39:23;;;;;;;;;;;11.30;86.70;;;;;;4929731;29;19919;-88
2023/11/17 14:41:50;;;;;;;;;;;11.30;86.50;;;;;;4936721;29;20396;-89